sensor_id;sensor_type;location;lat;lon;timestamp;P1;durP1;ratioP1;P2;durP2;ratioP2
18308;SDS011;9280;50.276;18.650;2022-09-09T00:02:27;25.97;;;15.37;;
18308;SDS011;9280;50.276;18.650;2022-09-09T00:05:14;26.33;;;15.77;;
18308;SDS011;9280;50.276;18.650;2022-09-09T00:08:03;26.33;;;15.17;;
18308;SDS011;9280;50.276;18.650;2022-09-09T00:10:51;34.67;;;16.13;;
18308;SDS011;9280;50.276;18.650;2022-09-09T00:13:40;54.27;;;17.20;;
18308;SDS011;9280;50.276;18.650;2022-09-09T00:16:29;114.63;;;18.20;;
18308;SDS011;9280;50.276;18.650;2022-09-09T00:19:19;505.40;;;31.93;;
18308;SDS011;9280;50.276;18.650;2022-09-09T00:22:12;448.77;;;25.27;;
18308;SDS011;9280;50.276;18.650;2022-09-09T00:25:02;290.73;;;19.07;;
18308;SDS011;9280;50.276;18.650;2022-09-09T00:27:50;694.20;;;34.23;;
18308;SDS011;9280;50.276;18.650;2022-09-09T00:30:36;544.43;;;29.27;;
18308;SDS011;9280;50.276;18.650;2022-09-09T00:33:24;658.30;;;30.63;;
18308;SDS011;9280;50.276;18.650;2022-09-09T00:36:13;659.30;;;31.73;;
18308;SDS011;9280;50.276;18.650;2022-09-09T00:39:01;493.67;;;29.30;;
18308;SDS011;9280;50.276;18.650;2022-09-09T00:41:50;562.50;;;29.03;;
18308;SDS011;9280;50.276;18.650;2022-09-09T00:44:37;316.57;;;21.83;;
18308;SDS011;9280;50.276;18.650;2022-09-09T00:47:28;323.80;;;21.03;;
18308;SDS011;9280;50.276;18.650;2022-09-09T00:50:25;223.30;;;16.47;;
18308;SDS011;9280;50.276;18.650;2022-09-09T00:53:18;232.47;;;16.70;;
18308;SDS011;9280;50.276;18.650;2022-09-09T00:56:11;260.27;;;18.33;;
18308;SDS011;9280;50.276;18.650;2022-09-09T00:58:59;263.43;;;18.53;;
18308;SDS011;9280;50.276;18.650;2022-09-09T01:01:49;268.80;;;18.93;;
18308;SDS011;9280;50.276;18.650;2022-09-09T01:04:36;359.57;;;23.63;;
18308;SDS011;9280;50.276;18.650;2022-09-09T01:07:24;225.00;;;20.07;;
18308;SDS011;9280;50.276;18.650;2022-09-09T01:10:14;88.07;;;18.53;;
18308;SDS011;9280;50.276;18.650;2022-09-09T01:13:05;173.03;;;20.90;;
18308;SDS011;9280;50.276;18.650;2022-09-09T01:15:55;64.90;;;17.73;;
18308;SDS011;9280;50.276;18.650;2022-09-09T01:18:44;45.83;;;17.97;;
18308;SDS011;9280;50.276;18.650;2022-09-09T01:21:34;43.40;;;19.23;;
18308;SDS011;9280;50.276;18.650;2022-09-09T01:24:25;47.33;;;19.70;;
18308;SDS011;9280;50.276;18.650;2022-09-09T01:27:24;62.73;;;19.87;;
18308;SDS011;9280;50.276;18.650;2022-09-09T01:30:11;201.07;;;25.67;;
18308;SDS011;9280;50.276;18.650;2022-09-09T01:32:58;117.40;;;22.63;;
18308;SDS011;9280;50.276;18.650;2022-09-09T01:35:48;147.70;;;23.17;;
18308;SDS011;9280;50.276;18.650;2022-09-09T01:38:36;386.60;;;29.13;;
18308;SDS011;9280;50.276;18.650;2022-09-09T01:41:23;105.00;;;19.37;;
18308;SDS011;9280;50.276;18.650;2022-09-09T01:44:20;162.17;;;21.23;;
18308;SDS011;9280;50.276;18.650;2022-09-09T01:47:07;682.17;;;40.63;;
18308;SDS011;9280;50.276;18.650;2022-09-09T01:50:10;143.27;;;20.00;;
18308;SDS011;9280;50.276;18.650;2022-09-09T01:52:59;59.20;;;17.00;;
18308;SDS011;9280;50.276;18.650;2022-09-09T01:56:01;28.53;;;16.00;;
18308;SDS011;9280;50.276;18.650;2022-09-09T01:58:57;30.80;;;15.60;;
18308;SDS011;9280;50.276;18.650;2022-09-09T02:01:51;29.83;;;16.27;;
18308;SDS011;9280;50.276;18.650;2022-09-09T02:04:42;32.27;;;16.93;;
18308;SDS011;9280;50.276;18.650;2022-09-09T02:07:39;33.80;;;17.10;;
18308;SDS011;9280;50.276;18.650;2022-09-09T02:10:41;31.23;;;16.83;;
18308;SDS011;9280;50.276;18.650;2022-09-09T02:13:37;30.17;;;16.33;;
18308;SDS011;9280;50.276;18.650;2022-09-09T02:16:30;29.77;;;15.20;;
18308;SDS011;9280;50.276;18.650;2022-09-09T02:19:21;21.87;;;13.80;;
18308;SDS011;9280;50.276;18.650;2022-09-09T02:22:39;20.90;;;13.93;;
18308;SDS011;9280;50.276;18.650;2022-09-09T02:25:30;24.07;;;14.23;;
18308;SDS011;9280;50.276;18.650;2022-09-09T02:28:28;26.00;;;13.10;;
18308;SDS011;9280;50.276;18.650;2022-09-09T02:31:17;23.33;;;13.00;;
18308;SDS011;9280;50.276;18.650;2022-09-09T02:34:05;25.03;;;13.50;;
18308;SDS011;9280;50.276;18.650;2022-09-09T02:36:56;19.30;;;12.87;;
18308;SDS011;9280;50.276;18.650;2022-09-09T02:39:44;22.43;;;13.27;;
18308;SDS011;9280;50.276;18.650;2022-09-09T02:42:38;21.23;;;13.07;;
18308;SDS011;9280;50.276;18.650;2022-09-09T02:45:25;19.70;;;12.50;;
18308;SDS011;9280;50.276;18.650;2022-09-09T02:48:14;21.53;;;14.03;;
18308;SDS011;9280;50.276;18.650;2022-09-09T02:51:06;22.37;;;13.00;;
18308;SDS011;9280;50.276;18.650;2022-09-09T02:53:57;19.83;;;12.57;;
18308;SDS011;9280;50.276;18.650;2022-09-09T02:56:47;23.57;;;13.07;;
18308;SDS011;9280;50.276;18.650;2022-09-09T02:59:36;19.70;;;13.50;;
18308;SDS011;9280;50.276;18.650;2022-09-09T03:02:23;22.40;;;12.73;;
18308;SDS011;9280;50.276;18.650;2022-09-09T03:05:15;19.57;;;13.23;;
18308;SDS011;9280;50.276;18.650;2022-09-09T03:08:01;17.43;;;11.80;;
18308;SDS011;9280;50.276;18.650;2022-09-09T03:10:49;20.97;;;13.17;;
18308;SDS011;9280;50.276;18.650;2022-09-09T03:13:37;24.77;;;13.10;;
18308;SDS011;9280;50.276;18.650;2022-09-09T03:16:24;20.93;;;13.73;;
18308;SDS011;9280;50.276;18.650;2022-09-09T03:19:12;20.40;;;13.30;;
18308;SDS011;9280;50.276;18.650;2022-09-09T03:21:59;18.17;;;12.37;;
18308;SDS011;9280;50.276;18.650;2022-09-09T03:24:47;21.40;;;13.73;;
18308;SDS011;9280;50.276;18.650;2022-09-09T03:27:36;27.10;;;14.80;;
18308;SDS011;9280;50.276;18.650;2022-09-09T03:30:22;20.80;;;13.73;;
18308;SDS011;9280;50.276;18.650;2022-09-09T03:33:09;20.93;;;14.20;;
18308;SDS011;9280;50.276;18.650;2022-09-09T03:35:57;21.57;;;13.70;;
18308;SDS011;9280;50.276;18.650;2022-09-09T03:38:43;28.40;;;14.03;;
18308;SDS011;9280;50.276;18.650;2022-09-09T03:41:30;22.57;;;13.23;;
18308;SDS011;9280;50.276;18.650;2022-09-09T03:44:20;19.40;;;12.43;;
18308;SDS011;9280;50.276;18.650;2022-09-09T03:47:06;20.07;;;13.53;;
18308;SDS011;9280;50.276;18.650;2022-09-09T03:49:53;19.03;;;13.73;;
18308;SDS011;9280;50.276;18.650;2022-09-09T03:52:39;20.23;;;13.87;;
18308;SDS011;9280;50.276;18.650;2022-09-09T03:55:33;19.37;;;13.23;;
18308;SDS011;9280;50.276;18.650;2022-09-09T03:58:19;22.80;;;13.73;;
18308;SDS011;9280;50.276;18.650;2022-09-09T04:01:11;23.33;;;14.33;;
18308;SDS011;9280;50.276;18.650;2022-09-09T04:03:59;23.30;;;14.37;;
18308;SDS011;9280;50.276;18.650;2022-09-09T04:06:47;25.70;;;15.37;;
18308;SDS011;9280;50.276;18.650;2022-09-09T04:09:35;23.07;;;13.93;;
18308;SDS011;9280;50.276;18.650;2022-09-09T04:12:21;24.20;;;13.53;;
18308;SDS011;9280;50.276;18.650;2022-09-09T04:15:08;20.57;;;13.30;;
18308;SDS011;9280;50.276;18.650;2022-09-09T04:17:57;22.37;;;13.73;;
18308;SDS011;9280;50.276;18.650;2022-09-09T04:20:45;24.50;;;16.60;;
18308;SDS011;9280;50.276;18.650;2022-09-09T04:23:32;22.77;;;14.37;;
18308;SDS011;9280;50.276;18.650;2022-09-09T04:26:18;21.67;;;13.13;;
18308;SDS011;9280;50.276;18.650;2022-09-09T04:29:05;17.43;;;13.00;;
18308;SDS011;9280;50.276;18.650;2022-09-09T04:31:52;20.53;;;13.37;;
18308;SDS011;9280;50.276;18.650;2022-09-09T04:34:40;22.30;;;14.03;;
18308;SDS011;9280;50.276;18.650;2022-09-09T04:37:27;23.53;;;14.23;;
18308;SDS011;9280;50.276;18.650;2022-09-09T04:40:13;23.70;;;15.40;;
18308;SDS011;9280;50.276;18.650;2022-09-09T04:43:02;26.33;;;15.33;;
18308;SDS011;9280;50.276;18.650;2022-09-09T04:45:50;25.07;;;15.90;;
18308;SDS011;9280;50.276;18.650;2022-09-09T04:48:39;28.27;;;15.53;;
18308;SDS011;9280;50.276;18.650;2022-09-09T04:51:28;32.73;;;17.47;;
18308;SDS011;9280;50.276;18.650;2022-09-09T04:54:15;35.67;;;18.23;;
18308;SDS011;9280;50.276;18.650;2022-09-09T04:57:03;44.70;;;23.07;;
18308;SDS011;9280;50.276;18.650;2022-09-09T04:59:49;31.70;;;17.70;;
18308;SDS011;9280;50.276;18.650;2022-09-09T05:02:36;29.67;;;17.37;;
18308;SDS011;9280;50.276;18.650;2022-09-09T05:05:24;34.93;;;19.30;;
18308;SDS011;9280;50.276;18.650;2022-09-09T05:08:12;31.90;;;18.07;;
18308;SDS011;9280;50.276;18.650;2022-09-09T05:10:59;33.73;;;18.37;;
18308;SDS011;9280;50.276;18.650;2022-09-09T05:13:45;31.90;;;18.43;;
18308;SDS011;9280;50.276;18.650;2022-09-09T05:16:35;32.83;;;18.33;;
18308;SDS011;9280;50.276;18.650;2022-09-09T05:19:22;30.63;;;17.33;;
18308;SDS011;9280;50.276;18.650;2022-09-09T05:22:10;34.57;;;20.50;;
18308;SDS011;9280;50.276;18.650;2022-09-09T05:25:03;40.87;;;21.67;;
18308;SDS011;9280;50.276;18.650;2022-09-09T05:27:50;32.87;;;18.83;;
18308;SDS011;9280;50.276;18.650;2022-09-09T05:30:38;27.30;;;17.13;;
18308;SDS011;9280;50.276;18.650;2022-09-09T05:33:24;38.17;;;19.20;;
18308;SDS011;9280;50.276;18.650;2022-09-09T05:36:11;31.73;;;18.50;;
18308;SDS011;9280;50.276;18.650;2022-09-09T05:38:58;36.20;;;19.37;;
18308;SDS011;9280;50.276;18.650;2022-09-09T05:41:48;40.90;;;20.60;;
18308;SDS011;9280;50.276;18.650;2022-09-09T05:44:35;37.90;;;20.80;;
18308;SDS011;9280;50.276;18.650;2022-09-09T05:47:22;31.33;;;19.17;;
18308;SDS011;9280;50.276;18.650;2022-09-09T05:50:08;32.17;;;18.80;;
18308;SDS011;9280;50.276;18.650;2022-09-09T05:52:55;30.93;;;18.27;;
18308;SDS011;9280;50.276;18.650;2022-09-09T05:55:41;30.77;;;18.60;;
18308;SDS011;9280;50.276;18.650;2022-09-09T05:58:31;29.90;;;18.37;;
18308;SDS011;9280;50.276;18.650;2022-09-09T06:01:18;29.97;;;18.90;;
18308;SDS011;9280;50.276;18.650;2022-09-09T06:04:05;32.20;;;18.73;;
18308;SDS011;9280;50.276;18.650;2022-09-09T06:06:53;40.57;;;17.90;;
18308;SDS011;9280;50.276;18.650;2022-09-09T06:09:40;28.73;;;17.53;;
18308;SDS011;9280;50.276;18.650;2022-09-09T06:12:26;32.10;;;19.87;;
18308;SDS011;9280;50.276;18.650;2022-09-09T06:15:14;30.77;;;18.13;;
18308;SDS011;9280;50.276;18.650;2022-09-09T06:18:01;32.87;;;16.90;;
18308;SDS011;9280;50.276;18.650;2022-09-09T06:20:54;27.03;;;15.57;;
18308;SDS011;9280;50.276;18.650;2022-09-09T06:23:41;26.47;;;16.90;;
18308;SDS011;9280;50.276;18.650;2022-09-09T06:26:29;26.17;;;14.70;;
18308;SDS011;9280;50.276;18.650;2022-09-09T06:29:17;17.10;;;13.10;;
18308;SDS011;9280;50.276;18.650;2022-09-09T06:32:05;22.70;;;13.57;;
18308;SDS011;9280;50.276;18.650;2022-09-09T06:34:52;18.23;;;12.70;;
18308;SDS011;9280;50.276;18.650;2022-09-09T06:37:38;19.07;;;12.83;;
18308;SDS011;9280;50.276;18.650;2022-09-09T06:40:25;15.17;;;10.87;;
18308;SDS011;9280;50.276;18.650;2022-09-09T06:43:11;18.73;;;9.80;;
18308;SDS011;9280;50.276;18.650;2022-09-09T06:46:05;14.70;;;10.37;;
18308;SDS011;9280;50.276;18.650;2022-09-09T06:48:54;13.87;;;9.30;;
18308;SDS011;9280;50.276;18.650;2022-09-09T06:51:44;12.17;;;8.83;;
18308;SDS011;9280;50.276;18.650;2022-09-09T06:54:31;12.10;;;9.37;;
18308;SDS011;9280;50.276;18.650;2022-09-09T06:57:22;18.77;;;8.60;;
18308;SDS011;9280;50.276;18.650;2022-09-09T07:00:10;16.37;;;9.07;;
18308;SDS011;9280;50.276;18.650;2022-09-09T07:02:58;10.57;;;7.80;;
18308;SDS011;9280;50.276;18.650;2022-09-09T07:05:54;10.97;;;7.73;;
18308;SDS011;9280;50.276;18.650;2022-09-09T07:08:42;7.20;;;6.10;;
18308;SDS011;9280;50.276;18.650;2022-09-09T07:11:29;8.90;;;6.00;;
18308;SDS011;9280;50.276;18.650;2022-09-09T07:14:17;12.30;;;6.27;;
18308;SDS011;9280;50.276;18.650;2022-09-09T07:17:07;7.23;;;6.30;;
18308;SDS011;9280;50.276;18.650;2022-09-09T07:19:56;17.30;;;6.57;;
18308;SDS011;9280;50.276;18.650;2022-09-09T07:22:43;16.10;;;6.93;;
18308;SDS011;9280;50.276;18.650;2022-09-09T07:25:30;14.63;;;6.73;;
18308;SDS011;9280;50.276;18.650;2022-09-09T07:28:16;11.50;;;6.17;;
18308;SDS011;9280;50.276;18.650;2022-09-09T07:31:02;10.43;;;5.97;;
18308;SDS011;9280;50.276;18.650;2022-09-09T07:33:49;10.03;;;6.60;;
18308;SDS011;9280;50.276;18.650;2022-09-09T07:36:37;6.57;;;4.90;;
18308;SDS011;9280;50.276;18.650;2022-09-09T07:39:27;4.93;;;3.33;;
18308;SDS011;9280;50.276;18.650;2022-09-09T07:42:14;6.33;;;4.10;;
18308;SDS011;9280;50.276;18.650;2022-09-09T07:45:00;6.00;;;4.43;;
18308;SDS011;9280;50.276;18.650;2022-09-09T07:47:46;6.33;;;4.23;;
18308;SDS011;9280;50.276;18.650;2022-09-09T07:50:34;5.13;;;4.07;;
18308;SDS011;9280;50.276;18.650;2022-09-09T07:53:20;3.80;;;3.50;;
18308;SDS011;9280;50.276;18.650;2022-09-09T07:56:09;5.20;;;4.20;;
18308;SDS011;9280;50.276;18.650;2022-09-09T07:58:58;3.70;;;3.40;;
18308;SDS011;9280;50.276;18.650;2022-09-09T08:01:46;6.07;;;3.47;;
18308;SDS011;9280;50.276;18.650;2022-09-09T08:04:37;4.10;;;3.70;;
18308;SDS011;9280;50.276;18.650;2022-09-09T08:07:23;3.70;;;3.30;;
18308;SDS011;9280;50.276;18.650;2022-09-09T08:10:12;4.50;;;3.70;;
18308;SDS011;9280;50.276;18.650;2022-09-09T08:13:03;4.90;;;3.87;;
18308;SDS011;9280;50.276;18.650;2022-09-09T08:15:50;4.50;;;3.83;;
18308;SDS011;9280;50.276;18.650;2022-09-09T08:18:37;3.70;;;3.20;;
18308;SDS011;9280;50.276;18.650;2022-09-09T08:21:24;10.33;;;3.80;;
18308;SDS011;9280;50.276;18.650;2022-09-09T08:24:14;6.97;;;3.70;;
18308;SDS011;9280;50.276;18.650;2022-09-09T08:27:05;4.93;;;3.60;;
18308;SDS011;9280;50.276;18.650;2022-09-09T08:29:52;5.43;;;3.40;;
18308;SDS011;9280;50.276;18.650;2022-09-09T08:32:40;3.73;;;3.43;;
18308;SDS011;9280;50.276;18.650;2022-09-09T08:35:27;3.50;;;2.73;;
18308;SDS011;9280;50.276;18.650;2022-09-09T08:38:17;3.33;;;3.10;;
18308;SDS011;9280;50.276;18.650;2022-09-09T08:41:07;3.17;;;2.87;;
18308;SDS011;9280;50.276;18.650;2022-09-09T08:44:13;3.60;;;3.30;;
18308;SDS011;9280;50.276;18.650;2022-09-09T08:47:08;4.37;;;3.10;;
18308;SDS011;9280;50.276;18.650;2022-09-09T08:50:05;3.20;;;2.90;;
18308;SDS011;9280;50.276;18.650;2022-09-09T08:53:03;5.53;;;3.30;;
18308;SDS011;9280;50.276;18.650;2022-09-09T08:55:55;3.93;;;3.50;;
18308;SDS011;9280;50.276;18.650;2022-09-09T08:59:00;4.67;;;2.73;;
18308;SDS011;9280;50.276;18.650;2022-09-09T09:01:58;5.03;;;3.63;;
18308;SDS011;9280;50.276;18.650;2022-09-09T09:05:07;4.13;;;3.67;;
18308;SDS011;9280;50.276;18.650;2022-09-09T09:08:03;3.63;;;3.33;;
18308;SDS011;9280;50.276;18.650;2022-09-09T09:10:59;6.57;;;2.90;;
18308;SDS011;9280;50.276;18.650;2022-09-09T09:13:47;5.13;;;2.90;;
18308;SDS011;9280;50.276;18.650;2022-09-09T09:16:38;3.10;;;2.90;;
18308;SDS011;9280;50.276;18.650;2022-09-09T09:19:34;4.43;;;2.90;;
18308;SDS011;9280;50.276;18.650;2022-09-09T09:22:24;4.60;;;3.30;;
18308;SDS011;9280;50.276;18.650;2022-09-09T09:25:21;3.33;;;3.00;;
18308;SDS011;9280;50.276;18.650;2022-09-09T09:28:10;5.00;;;3.07;;
18308;SDS011;9280;50.276;18.650;2022-09-09T09:31:03;5.13;;;3.43;;
18308;SDS011;9280;50.276;18.650;2022-09-09T09:33:54;5.10;;;3.27;;
18308;SDS011;9280;50.276;18.650;2022-09-09T09:36:46;3.40;;;2.73;;
18308;SDS011;9280;50.276;18.650;2022-09-09T09:39:40;3.37;;;2.80;;
18308;SDS011;9280;50.276;18.650;2022-09-09T09:42:27;10.67;;;3.30;;
18308;SDS011;9280;50.276;18.650;2022-09-09T09:45:16;4.53;;;2.87;;
18308;SDS011;9280;50.276;18.650;2022-09-09T09:48:08;3.17;;;2.87;;
18308;SDS011;9280;50.276;18.650;2022-09-09T09:50:57;3.57;;;3.03;;
18308;SDS011;9280;50.276;18.650;2022-09-09T09:53:47;4.03;;;3.00;;
18308;SDS011;9280;50.276;18.650;2022-09-09T09:56:36;2.60;;;2.40;;
18308;SDS011;9280;50.276;18.650;2022-09-09T09:59:31;2.50;;;2.30;;
18308;SDS011;9280;50.276;18.650;2022-09-09T10:02:20;2.83;;;2.53;;
18308;SDS011;9280;50.276;18.650;2022-09-09T10:05:15;2.50;;;2.30;;
18308;SDS011;9280;50.276;18.650;2022-09-09T10:08:10;3.70;;;2.60;;
18308;SDS011;9280;50.276;18.650;2022-09-09T10:11:02;4.13;;;2.30;;
18308;SDS011;9280;50.276;18.650;2022-09-09T10:14:03;3.73;;;2.30;;
18308;SDS011;9280;50.276;18.650;2022-09-09T10:17:00;3.10;;;2.80;;
18308;SDS011;9280;50.276;18.650;2022-09-09T10:19:58;4.67;;;2.70;;
18308;SDS011;9280;50.276;18.650;2022-09-09T10:23:02;5.63;;;2.70;;
18308;SDS011;9280;50.276;18.650;2022-09-09T10:26:00;2.50;;;2.30;;
18308;SDS011;9280;50.276;18.650;2022-09-09T10:29:00;6.43;;;2.10;;
18308;SDS011;9280;50.276;18.650;2022-09-09T10:32:04;2.80;;;2.10;;
18308;SDS011;9280;50.276;18.650;2022-09-09T10:35:01;2.77;;;2.30;;
18308;SDS011;9280;50.276;18.650;2022-09-09T10:38:02;5.70;;;2.13;;
18308;SDS011;9280;50.276;18.650;2022-09-09T10:41:00;3.13;;;2.87;;
18308;SDS011;9280;50.276;18.650;2022-09-09T10:44:01;4.73;;;2.30;;
18308;SDS011;9280;50.276;18.650;2022-09-09T10:47:17;5.13;;;2.90;;
18308;SDS011;9280;50.276;18.650;2022-09-09T10:50:28;2.97;;;2.67;;
18308;SDS011;9280;50.276;18.650;2022-09-09T10:53:33;2.60;;;2.30;;
18308;SDS011;9280;50.276;18.650;2022-09-09T10:56:22;2.27;;;2.17;;
18308;SDS011;9280;50.276;18.650;2022-09-09T10:59:10;2.63;;;2.10;;
18308;SDS011;9280;50.276;18.650;2022-09-09T11:02:03;3.97;;;2.53;;
18308;SDS011;9280;50.276;18.650;2022-09-09T11:05:02;4.10;;;2.20;;
18308;SDS011;9280;50.276;18.650;2022-09-09T11:07:51;3.77;;;2.80;;
18308;SDS011;9280;50.276;18.650;2022-09-09T11:10:41;2.27;;;2.07;;
18308;SDS011;9280;50.276;18.650;2022-09-09T11:13:34;2.20;;;1.93;;
18308;SDS011;9280;50.276;18.650;2022-09-09T11:16:26;3.33;;;2.77;;
18308;SDS011;9280;50.276;18.650;2022-09-09T11:19:16;4.20;;;1.63;;
18308;SDS011;9280;50.276;18.650;2022-09-09T11:22:14;1.70;;;1.60;;
18308;SDS011;9280;50.276;18.650;2022-09-09T11:25:06;1.77;;;1.67;;
18308;SDS011;9280;50.276;18.650;2022-09-09T11:28:06;2.43;;;2.20;;
18308;SDS011;9280;50.276;18.650;2022-09-09T11:31:11;2.67;;;1.93;;
18308;SDS011;9280;50.276;18.650;2022-09-09T11:34:26;1.90;;;1.80;;
18308;SDS011;9280;50.276;18.650;2022-09-09T11:40:39;1.90;;;1.80;;
18308;SDS011;9280;50.276;18.650;2022-09-09T11:43:27;3.37;;;1.80;;
18308;SDS011;9280;50.276;18.650;2022-09-09T11:46:16;1.70;;;1.60;;
18308;SDS011;9280;50.276;18.650;2022-09-09T11:49:06;3.37;;;1.80;;
18308;SDS011;9280;50.276;18.650;2022-09-09T11:52:11;2.53;;;1.53;;
18308;SDS011;9280;50.276;18.650;2022-09-09T11:54:59;1.57;;;1.47;;
18308;SDS011;9280;50.276;18.650;2022-09-09T11:57:57;1.67;;;1.57;;
18308;SDS011;9280;50.276;18.650;2022-09-09T12:00:45;1.73;;;1.50;;
18308;SDS011;9280;50.276;18.650;2022-09-09T12:03:34;1.87;;;1.77;;
18308;SDS011;9280;50.276;18.650;2022-09-09T12:06:27;1.70;;;1.60;;
18308;SDS011;9280;50.276;18.650;2022-09-09T12:09:18;3.40;;;1.70;;
18308;SDS011;9280;50.276;18.650;2022-09-09T12:12:27;4.27;;;1.67;;
18308;SDS011;9280;50.276;18.650;2022-09-09T12:15:20;2.40;;;1.50;;
18308;SDS011;9280;50.276;18.650;2022-09-09T12:18:15;1.70;;;1.60;;
18308;SDS011;9280;50.276;18.650;2022-09-09T12:21:13;1.97;;;1.70;;
18308;SDS011;9280;50.276;18.650;2022-09-09T12:24:10;2.23;;;1.53;;
18308;SDS011;9280;50.276;18.650;2022-09-09T12:26:58;1.57;;;1.50;;
18308;SDS011;9280;50.276;18.650;2022-09-09T12:29:55;3.33;;;1.60;;
18308;SDS011;9280;50.276;18.650;2022-09-09T12:32:47;2.13;;;1.60;;
18308;SDS011;9280;50.276;18.650;2022-09-09T12:35:44;1.83;;;1.73;;
18308;SDS011;9280;50.276;18.650;2022-09-09T12:38:37;1.70;;;1.60;;
18308;SDS011;9280;50.276;18.650;2022-09-09T12:41:27;2.67;;;1.60;;
18308;SDS011;9280;50.276;18.650;2022-09-09T12:44:15;2.20;;;1.77;;
18308;SDS011;9280;50.276;18.650;2022-09-09T12:47:03;1.80;;;1.70;;
18308;SDS011;9280;50.276;18.650;2022-09-09T12:49:49;1.80;;;1.63;;
18308;SDS011;9280;50.276;18.650;2022-09-09T12:52:36;1.40;;;1.23;;
18308;SDS011;9280;50.276;18.650;2022-09-09T12:55:24;2.50;;;2.30;;
18308;SDS011;9280;50.276;18.650;2022-09-09T12:58:14;1.33;;;1.23;;
18308;SDS011;9280;50.276;18.650;2022-09-09T13:01:04;4.07;;;1.30;;
18308;SDS011;9280;50.276;18.650;2022-09-09T13:03:53;1.20;;;1.10;;
18308;SDS011;9280;50.276;18.650;2022-09-09T13:06:40;2.63;;;1.33;;
18308;SDS011;9280;50.276;18.650;2022-09-09T13:09:26;1.50;;;1.40;;
18308;SDS011;9280;50.276;18.650;2022-09-09T13:12:13;1.97;;;1.30;;
18308;SDS011;9280;50.276;18.650;2022-09-09T13:15:02;1.67;;;1.03;;
18308;SDS011;9280;50.276;18.650;2022-09-09T13:17:52;2.67;;;1.20;;
18308;SDS011;9280;50.276;18.650;2022-09-09T13:20:46;1.30;;;1.03;;
18308;SDS011;9280;50.276;18.650;2022-09-09T13:23:34;12.30;;;1.23;;
18308;SDS011;9280;50.276;18.650;2022-09-09T13:26:22;1.30;;;1.17;;
18308;SDS011;9280;50.276;18.650;2022-09-09T13:29:15;3.97;;;0.90;;
18308;SDS011;9280;50.276;18.650;2022-09-09T13:32:06;1.63;;;1.03;;
18308;SDS011;9280;50.276;18.650;2022-09-09T13:35:00;1.33;;;1.17;;
18308;SDS011;9280;50.276;18.650;2022-09-09T13:37:48;3.97;;;1.20;;
18308;SDS011;9280;50.276;18.650;2022-09-09T13:40:35;1.73;;;1.03;;
18308;SDS011;9280;50.276;18.650;2022-09-09T13:43:21;1.37;;;1.10;;
18308;SDS011;9280;50.276;18.650;2022-09-09T13:46:22;2.63;;;1.00;;
18308;SDS011;9280;50.276;18.650;2022-09-09T13:49:19;3.17;;;1.23;;
18308;SDS011;9280;50.276;18.650;2022-09-09T13:52:09;1.70;;;1.10;;
18308;SDS011;9280;50.276;18.650;2022-09-09T13:54:58;2.17;;;1.10;;
18308;SDS011;9280;50.276;18.650;2022-09-09T13:57:50;2.20;;;1.10;;
18308;SDS011;9280;50.276;18.650;2022-09-09T14:00:37;4.03;;;1.23;;
18308;SDS011;9280;50.276;18.650;2022-09-09T14:03:23;1.50;;;1.40;;
18308;SDS011;9280;50.276;18.650;2022-09-09T14:06:09;1.37;;;1.10;;
18308;SDS011;9280;50.276;18.650;2022-09-09T14:08:56;1.27;;;1.17;;
18308;SDS011;9280;50.276;18.650;2022-09-09T14:11:44;1.50;;;0.97;;
18308;SDS011;9280;50.276;18.650;2022-09-09T14:14:30;1.07;;;0.90;;
18308;SDS011;9280;50.276;18.650;2022-09-09T14:17:17;1.37;;;1.27;;
18308;SDS011;9280;50.276;18.650;2022-09-09T14:20:03;1.87;;;1.03;;
18308;SDS011;9280;50.276;18.650;2022-09-09T14:22:51;1.00;;;1.00;;
18308;SDS011;9280;50.276;18.650;2022-09-09T14:25:42;3.13;;;1.30;;
18308;SDS011;9280;50.276;18.650;2022-09-09T14:28:30;1.45;;;1.08;;
18308;SDS011;9280;50.276;18.650;2022-09-09T14:31:16;1.63;;;1.13;;
18308;SDS011;9280;50.276;18.650;2022-09-09T14:34:02;4.30;;;1.10;;
18308;SDS011;9280;50.276;18.650;2022-09-09T14:36:50;2.33;;;1.07;;
18308;SDS011;9280;50.276;18.650;2022-09-09T14:39:36;1.70;;;1.27;;
18308;SDS011;9280;50.276;18.650;2022-09-09T14:42:22;1.00;;;0.90;;
18308;SDS011;9280;50.276;18.650;2022-09-09T14:45:11;1.23;;;0.80;;
18308;SDS011;9280;50.276;18.650;2022-09-09T14:47:57;2.77;;;1.10;;
18308;SDS011;9280;50.276;18.650;2022-09-09T14:50:43;3.03;;;1.20;;
18308;SDS011;9280;50.276;18.650;2022-09-09T14:53:29;0.93;;;0.83;;
18308;SDS011;9280;50.276;18.650;2022-09-09T14:56:16;3.73;;;1.10;;
18308;SDS011;9280;50.276;18.650;2022-09-09T14:59:04;1.07;;;0.80;;
18308;SDS011;9280;50.276;18.650;2022-09-09T15:01:51;1.20;;;1.10;;
18308;SDS011;9280;50.276;18.650;2022-09-09T15:04:37;1.53;;;1.00;;
18308;SDS011;9280;50.276;18.650;2022-09-09T15:07:23;1.27;;;1.10;;
18308;SDS011;9280;50.276;18.650;2022-09-09T15:10:11;1.87;;;1.10;;
18308;SDS011;9280;50.276;18.650;2022-09-09T15:12:57;1.10;;;1.10;;
18308;SDS011;9280;50.276;18.650;2022-09-09T15:15:43;1.33;;;1.10;;
18308;SDS011;9280;50.276;18.650;2022-09-09T15:18:31;5.30;;;1.10;;
18308;SDS011;9280;50.276;18.650;2022-09-09T15:21:17;2.53;;;1.63;;
18308;SDS011;9280;50.276;18.650;2022-09-09T15:24:05;2.87;;;1.30;;
18308;SDS011;9280;50.276;18.650;2022-09-09T15:26:52;1.23;;;1.13;;
18308;SDS011;9280;50.276;18.650;2022-09-09T15:29:39;3.60;;;1.40;;
18308;SDS011;9280;50.276;18.650;2022-09-09T15:32:26;3.70;;;1.50;;
18308;SDS011;9280;50.276;18.650;2022-09-09T15:35:14;1.50;;;1.40;;
18308;SDS011;9280;50.276;18.650;2022-09-09T15:38:01;2.43;;;1.20;;
18308;SDS011;9280;50.276;18.650;2022-09-09T15:40:52;1.30;;;1.20;;
18308;SDS011;9280;50.276;18.650;2022-09-09T15:43:42;3.03;;;1.33;;
18308;SDS011;9280;50.276;18.650;2022-09-09T15:46:31;5.40;;;1.53;;
18308;SDS011;9280;50.276;18.650;2022-09-09T15:49:20;2.67;;;1.87;;
18308;SDS011;9280;50.276;18.650;2022-09-09T15:52:10;1.70;;;1.60;;
18308;SDS011;9280;50.276;18.650;2022-09-09T15:54:56;1.70;;;1.40;;
18308;SDS011;9280;50.276;18.650;2022-09-09T15:57:45;1.33;;;1.10;;
18308;SDS011;9280;50.276;18.650;2022-09-09T16:00:31;7.47;;;1.50;;
18308;SDS011;9280;50.276;18.650;2022-09-09T16:03:18;1.50;;;1.40;;
18308;SDS011;9280;50.276;18.650;2022-09-09T16:06:04;2.03;;;1.23;;
18308;SDS011;9280;50.276;18.650;2022-09-09T16:08:53;1.50;;;1.40;;
18308;SDS011;9280;50.276;18.650;2022-09-09T16:11:40;2.03;;;1.50;;
18308;SDS011;9280;50.276;18.650;2022-09-09T16:14:26;2.73;;;1.63;;
18308;SDS011;9280;50.276;18.650;2022-09-09T16:17:17;2.40;;;1.33;;
18308;SDS011;9280;50.276;18.650;2022-09-09T16:20:05;2.33;;;1.60;;
18308;SDS011;9280;50.276;18.650;2022-09-09T16:22:52;1.30;;;1.20;;
18308;SDS011;9280;50.276;18.650;2022-09-09T16:25:41;4.37;;;1.67;;
18308;SDS011;9280;50.276;18.650;2022-09-09T16:28:28;2.00;;;1.80;;
18308;SDS011;9280;50.276;18.650;2022-09-09T16:31:15;2.73;;;1.97;;
18308;SDS011;9280;50.276;18.650;2022-09-09T16:34:02;4.27;;;2.00;;
18308;SDS011;9280;50.276;18.650;2022-09-09T16:36:48;3.57;;;2.53;;
18308;SDS011;9280;50.276;18.650;2022-09-09T16:39:34;4.17;;;2.70;;
18308;SDS011;9280;50.276;18.650;2022-09-09T16:42:22;2.57;;;2.20;;
18308;SDS011;9280;50.276;18.650;2022-09-09T16:45:08;5.70;;;2.83;;
18308;SDS011;9280;50.276;18.650;2022-09-09T16:47:54;4.80;;;2.33;;
18308;SDS011;9280;50.276;18.650;2022-09-09T16:50:40;7.43;;;2.30;;
18308;SDS011;9280;50.276;18.650;2022-09-09T16:53:26;5.00;;;2.70;;
18308;SDS011;9280;50.276;18.650;2022-09-09T16:56:13;3.03;;;2.40;;